Time;durP1;ratioP1;P1;durP2;ratioP2;P2;SDS_P1;SDS_P2;PMS_P1;PMS_P2;Temp;Humidity;BMP_temperature;BMP_pressure;BME280_temperature;BME280_humidity;BME280_pressure;Samples;Min_cycle;Max_cycle;Signal;HPM_P1;HPM_P2
2022/01/28 00:00:31;;;;;;;1.97;1.87;;;4.70;99.90;;;;;;5033072;28;20230;-63
2022/01/28 00:03:04;;;;;;;1.80;1.70;;;4.70;99.90;;;;;;5035926;28;20229;-63
2022/01/28 00:05:31;;;;;;;1.80;1.70;;;4.70;99.90;;;;;;5032480;28;20196;-61
2022/01/28 00:08:00;;;;;;;1.70;1.60;;;4.80;99.90;;;;;;5033383;28;20240;-62
2022/01/28 00:10:28;;;;;;;1.90;1.80;;;4.80;99.90;;;;;;5043105;28;20221;-61
2022/01/28 00:15:53;;;;;;;1.87;1.77;;;4.70;99.90;;;;;;5030021;28;20589;-61
2022/01/28 00:38:09;;;;;;;1.90;1.80;;;4.90;99.90;;;;;;5032372;28;20231;-61
2022/01/28 00:40:37;;;;;;;1.87;1.77;;;5.00;99.90;;;;;;5033213;28;20219;-61
2022/01/28 00:43:05;;;;;;;1.87;1.77;;;4.90;99.90;;;;;;5032482;28;20224;-63
2022/01/28 00:45:32;;;;;;;1.90;1.80;;;4.90;99.90;;;;;;5033075;28;20208;-62
2022/01/28 00:48:00;;;;;;;1.77;1.67;;;4.80;99.90;;;;;;5033057;28;20295;-62
2022/01/28 00:50:27;;;;;;;1.77;1.67;;;4.80;99.90;;;;;;5033895;28;20319;-63
2022/01/28 00:52:54;;;;;;;1.60;1.60;;;4.80;99.90;;;;;;5034073;28;20288;-62
2022/01/28 00:55:21;;;;;;;1.90;1.80;;;4.80;99.90;;;;;;5032114;28;20207;-62
2022/01/28 00:57:49;;;;;;;1.77;1.67;;;4.80;99.90;;;;;;5032286;28;20201;-62
2022/01/28 01:00:16;;;;;;;1.90;1.80;;;4.90;99.90;;;;;;5032867;28;20243;-62
2022/01/28 01:02:43;;;;;;;2.20;2.10;;;4.90;99.90;;;;;;5030976;28;20239;-62
2022/01/28 01:05:10;;;;;;;1.90;1.80;;;4.90;99.90;;;;;;5032124;28;20200;-62
2022/01/28 01:07:38;;;;;;;1.80;1.70;;;4.80;99.90;;;;;;5033271;28;20228;-62
2022/01/28 01:10:07;;;;;;;2.00;1.90;;;4.80;99.90;;;;;;5031569;28;20332;-62
2022/01/28 01:12:38;;;;;;;2.30;2.20;;;4.90;99.90;;;;;;5031936;28;20228;-62
2022/01/28 01:15:08;;;;;;;2.10;2.00;;;4.80;99.90;;;;;;5031776;28;20259;-62
2022/01/28 01:17:38;;;;;;;2.20;2.10;;;4.70;99.90;;;;;;5031966;28;20247;-62
2022/01/28 01:20:30;;;;;;;2.33;2.23;;;4.70;99.90;;;;;;5031756;28;20718;-62
2022/01/28 01:23:07;;;;;;;2.00;1.90;;;4.70;99.90;;;;;;5031667;28;20213;-62
2022/01/28 01:25:42;;;;;;;2.00;1.90;;;4.70;99.90;;;;;;5031716;28;20692;-63
2022/01/28 01:28:10;;;;;;;2.20;2.10;;;4.70;99.90;;;;;;5031848;28;20243;-63
2022/01/28 01:30:41;;;;;;;2.13;2.03;;;4.70;99.90;;;;;;5033697;28;20200;-63
2022/01/28 01:33:08;;;;;;;2.30;2.20;;;4.70;99.90;;;;;;5033513;28;20718;-63
2022/01/28 01:35:36;;;;;;;2.10;2.00;;;4.70;99.90;;;;;;5029131;28;20608;-62
2022/01/28 01:38:05;;;;;;;2.03;1.93;;;4.70;99.90;;;;;;5033187;28;20287;-63
2022/01/28 01:40:37;;;;;;;2.00;1.90;;;4.70;99.90;;;;;;5030613;28;20592;-63
2022/01/28 01:43:12;;;;;;;1.97;1.87;;;4.80;99.90;;;;;;5034021;28;20219;-62
2022/01/28 01:45:57;;;;;;;2.10;2.00;;;4.80;99.90;;;;;;5033590;28;20211;-62
2022/01/28 01:53:53;;;;;;;2.00;1.90;;;4.90;99.90;;;;;;5030608;28;20327;-63
2022/01/28 01:56:20;;;;;;;2.27;2.17;;;4.90;99.90;;;;;;5033015;28;20235;-62
2022/01/28 01:58:48;;;;;;;1.90;1.80;;;5.00;99.90;;;;;;5032214;28;20304;-62
2022/01/28 02:01:16;;;;;;;1.87;1.77;;;5.00;99.90;;;;;;5031297;28;20224;-62
2022/01/28 02:03:43;;;;;;;1.90;1.80;;;5.10;99.90;;;;;;5030326;28;20230;-62
2022/01/28 02:06:11;;;;;;;1.83;1.73;;;5.00;99.90;;;;;;5030208;28;20299;-63
2022/01/28 02:08:38;;;;;;;2.07;1.97;;;5.00;99.90;;;;;;5030313;28;20232;-63
2022/01/28 02:11:05;;;;;;;1.80;1.70;;;5.00;99.90;;;;;;5030539;28;20321;-61
2022/01/28 02:13:38;;;;;;;1.80;1.70;;;5.10;99.90;;;;;;5030609;28;20224;-62
2022/01/28 02:16:07;;;;;;;1.43;1.43;;;5.00;99.90;;;;;;5028695;28;20201;-62
2022/01/28 02:18:35;;;;;;;1.83;1.73;;;5.00;99.90;;;;;;5030210;28;20232;-62
2022/01/28 02:21:06;;;;;;;1.47;1.47;;;5.00;99.90;;;;;;5030497;28;20287;-61
2022/01/28 02:23:34;;;;;;;1.77;1.67;;;5.10;99.90;;;;;;5033176;28;20879;-62
2022/01/28 02:26:02;;;;;;;1.80;1.70;;;5.00;99.90;;;;;;5028774;28;20211;-62
2022/01/28 02:28:34;;;;;;;1.67;1.57;;;5.10;99.90;;;;;;5030616;28;20247;-63
2022/01/28 02:31:02;;;;;;;1.73;1.63;;;5.00;99.90;;;;;;5029791;28;20216;-63
2022/01/28 02:33:28;;;;;;;1.80;1.70;;;5.00;99.90;;;;;;5029758;28;20227;-63
2022/01/28 02:36:02;;;;;;;1.80;1.70;;;5.00;99.90;;;;;;5033808;28;20205;-63
2022/01/28 02:38:31;;;;;;;1.50;1.50;;;4.90;99.90;;;;;;5033595;28;20638;-63
2022/01/28 02:41:00;;;;;;;1.67;1.57;;;5.00;99.90;;;;;;5030769;28;20212;-63
2022/01/28 02:43:35;;;;;;;1.50;1.50;;;4.90;99.90;;;;;;5030443;28;20780;-62
2022/01/28 02:46:08;;;;;;;2.00;1.90;;;4.90;99.90;;;;;;5031168;28;20210;-63
2022/01/28 02:48:37;;;;;;;1.97;1.87;;;4.90;99.90;;;;;;5028839;28;20232;-62
2022/01/28 02:51:10;;;;;;;1.80;1.70;;;4.90;99.90;;;;;;5031564;28;20211;-62
2022/01/28 02:53:46;;;;;;;1.70;1.60;;;5.00;99.90;;;;;;5031495;28;20189;-62
2022/01/28 02:56:20;;;;;;;1.80;1.70;;;5.00;99.90;;;;;;5031629;28;20195;-61
2022/01/28 02:58:48;;;;;;;1.87;1.77;;;4.90;99.90;;;;;;5033176;28;20706;-61
2022/01/28 03:01:17;;;;;;;1.90;1.80;;;4.90;99.90;;;;;;5035255;28;20223;-64
2022/01/28 03:03:45;;;;;;;1.93;1.83;;;4.90;99.90;;;;;;5034937;28;20492;-62
2022/01/28 03:06:14;;;;;;;1.80;1.70;;;4.90;99.90;;;;;;5035063;28;20208;-61
2022/01/28 03:08:48;;;;;;;1.90;1.80;;;4.90;99.90;;;;;;5035567;28;20319;-61
2022/01/28 03:11:42;;;;;;;2.37;2.17;;;4.90;99.90;;;;;;5035464;28;20215;-62
2022/01/28 03:14:20;;;;;;;1.87;1.77;;;4.80;99.90;;;;;;5035034;28;20197;-62
2022/01/28 03:17:03;;;;;;;1.83;1.73;;;4.70;99.90;;;;;;5035149;28;20287;-61
2022/01/28 03:19:42;;;;;;;2.40;2.30;;;4.70;99.90;;;;;;5035611;28;20228;-62
2022/01/28 03:22:09;;;;;;;1.90;1.80;;;4.70;99.90;;;;;;5035254;28;20195;-62
2022/01/28 03:24:39;;;;;;;1.90;1.80;;;4.70;99.90;;;;;;5034446;28;20201;-62
2022/01/28 03:27:12;;;;;;;1.90;1.70;;;4.70;99.90;;;;;;5034466;28;20207;-62
2022/01/28 03:29:39;;;;;;;2.00;1.90;;;4.70;99.90;;;;;;5035022;28;20236;-61
2022/01/28 03:32:07;;;;;;;2.10;1.93;;;4.70;99.90;;;;;;5034433;28;20209;-63
2022/01/28 03:34:34;;;;;;;1.90;1.80;;;4.80;99.90;;;;;;5032425;28;20318;-61
2022/01/28 03:37:01;;;;;;;2.03;1.93;;;4.80;99.90;;;;;;5034147;28;20232;-63
2022/01/28 03:39:27;;;;;;;2.00;1.90;;;4.80;99.90;;;;;;5034707;28;20315;-62
2022/01/28 03:41:56;;;;;;;1.80;1.70;;;4.70;99.90;;;;;;5034696;28;20259;-63
2022/01/28 03:44:23;;;;;;;2.00;1.90;;;4.70;99.90;;;;;;5034121;28;20251;-62
2022/01/28 03:46:49;;;;;;;2.10;2.00;;;4.70;99.90;;;;;;5034116;28;20212;-62
2022/01/28 03:49:16;;;;;;;1.93;1.83;;;4.70;99.90;;;;;;5033984;28;20233;-62
2022/01/28 03:51:43;;;;;;;2.50;2.40;;;4.70;99.90;;;;;;5034404;28;20675;-61
2022/01/28 03:54:10;;;;;;;2.40;2.30;;;4.70;99.90;;;;;;5034198;28;20242;-61
2022/01/28 03:56:37;;;;;;;2.03;1.93;;;4.70;99.90;;;;;;5034112;28;20235;-62
2022/01/28 03:59:05;;;;;;;2.00;1.90;;;4.60;99.90;;;;;;5033840;28;20861;-61
2022/01/28 04:01:36;;;;;;;2.00;1.90;;;4.70;99.90;;;;;;5033986;28;20236;-62
2022/01/28 04:12:11;;;;;;;1.90;1.80;;;4.70;99.90;;;;;;5003321;28;20294;-62
2022/01/28 04:14:46;;;;;;;1.77;1.67;;;4.70;99.90;;;;;;5033679;28;20232;-62
2022/01/28 04:17:20;;;;;;;2.00;1.90;;;4.70;99.90;;;;;;5034500;28;20214;-62
2022/01/28 04:19:47;;;;;;;2.10;2.00;;;4.80;99.90;;;;;;5034240;28;20229;-62
2022/01/28 04:22:14;;;;;;;2.07;1.97;;;4.70;99.90;;;;;;5034011;28;20675;-62
2022/01/28 04:24:41;;;;;;;2.20;2.10;;;4.80;99.90;;;;;;5034349;28;20213;-62
2022/01/28 04:27:08;;;;;;;2.10;2.00;;;4.70;99.90;;;;;;5034024;28;20239;-61
2022/01/28 04:29:35;;;;;;;2.30;2.20;;;4.60;99.90;;;;;;5034550;28;20652;-62
2022/01/28 04:32:04;;;;;;;2.40;2.30;;;4.60;99.90;;;;;;5034312;28;20244;-61
2022/01/28 04:34:31;;;;;;;2.30;2.20;;;4.50;99.90;;;;;;5033547;28;20780;-61
2022/01/28 04:37:07;;;;;;;1.90;1.80;;;4.60;99.90;;;;;;5033758;28;20208;-62
2022/01/28 04:39:40;;;;;;;2.10;2.00;;;4.60;99.90;;;;;;5035747;28;20224;-62
2022/01/28 04:42:16;;;;;;;2.40;2.30;;;4.50;99.90;;;;;;5044634;28;20249;-63
2022/01/28 04:44:54;;;;;;;2.37;2.27;;;4.50;99.90;;;;;;5040197;28;20228;-63
2022/01/28 04:47:29;;;;;;;2.00;1.90;;;4.50;99.90;;;;;;5036460;28;20205;-62
2022/01/28 04:50:08;;;;;;;2.10;2.00;;;4.50;99.90;;;;;;5052731;23;20610;-63
2022/01/28 04:55:30;;;;;;;1.90;1.80;;;4.50;99.90;;;;;;5052779;28;20234;-63
2022/01/28 04:58:10;;;;;;;1.93;1.83;;;4.60;99.90;;;;;;5052547;28;20232;-61
2022/01/28 05:00:48;;;;;;;1.90;1.80;;;4.60;99.90;;;;;;5052900;28;20220;-62
2022/01/28 05:03:33;;;;;;;2.40;2.30;;;4.70;99.90;;;;;;5052946;28;20211;-62
2022/01/28 05:17:18;;;;;;;2.30;2.20;;;4.50;99.90;;;;;;5016393;28;20691;-63
2022/01/28 05:27:59;;;;;;;2.73;2.60;;;4.40;99.90;;;;;;5052379;28;20666;-63
2022/01/28 05:30:26;;;;;;;2.80;2.70;;;4.50;99.90;;;;;;5052236;28;20311;-62
2022/01/28 05:32:53;;;;;;;2.40;2.30;;;4.40;99.90;;;;;;5052646;28;20577;-61
2022/01/28 05:35:22;;;;;;;2.60;2.50;;;4.30;99.90;;;;;;5052267;28;20203;-62
2022/01/28 05:37:49;;;;;;;2.20;2.10;;;4.40;99.90;;;;;;5052853;28;20295;-62
2022/01/28 05:40:16;;;;;;;2.10;2.00;;;4.50;99.90;;;;;;5052273;28;20224;-62
2022/01/28 05:42:43;;;;;;;2.50;2.40;;;4.60;99.90;;;;;;5052023;28;20250;-62
2022/01/28 05:45:10;;;;;;;2.07;1.97;;;4.70;99.90;;;;;;5051832;28;20208;-61
2022/01/28 05:47:37;;;;;;;2.30;2.20;;;4.70;99.90;;;;;;5052108;28;20681;-61
2022/01/28 05:50:05;;;;;;;2.20;2.10;;;4.70;99.90;;;;;;5052365;28;20289;-61
2022/01/28 05:52:34;;;;;;;2.33;2.23;;;4.70;99.90;;;;;;5052360;28;20287;-61
2022/01/28 05:55:02;;;;;;;2.50;2.40;;;4.60;99.90;;;;;;5052738;28;20684;-60
2022/01/28 05:57:29;;;;;;;2.57;2.47;;;4.60;99.90;;;;;;5054932;28;20262;-61
2022/01/28 05:59:56;;;;;;;2.30;2.20;;;4.60;99.90;;;;;;5053707;28;20259;-61
2022/01/28 06:02:22;;;;;;;2.33;2.23;;;4.70;99.90;;;;;;5052611;28;20199;-60
2022/01/28 06:04:49;;;;;;;2.10;2.00;;;4.70;99.90;;;;;;5051797;28;20315;-62
2022/01/28 06:07:19;;;;;;;2.30;2.20;;;4.80;99.90;;;;;;5052251;28;20288;-61
2022/01/28 06:09:47;;;;;;;2.27;2.07;;;4.80;99.90;;;;;;5051626;28;20220;-61
2022/01/28 06:12:14;;;;;;;2.00;1.90;;;4.80;99.90;;;;;;5051669;28;20211;-61
2022/01/28 06:14:41;;;;;;;2.27;2.17;;;4.90;99.90;;;;;;5051389;28;20666;-62
2022/01/28 06:17:08;;;;;;;2.07;1.97;;;4.80;99.90;;;;;;5051811;28;20228;-62
2022/01/28 06:19:35;;;;;;;2.70;2.50;;;4.60;99.90;;;;;;5051292;28;20647;-62
2022/01/28 06:22:02;;;;;;;2.17;2.07;;;4.60;99.90;;;;;;5051932;28;20291;-63
2022/01/28 06:24:29;;;;;;;2.87;2.67;;;4.60;99.90;;;;;;5051690;28;20648;-62
2022/01/28 06:26:57;;;;;;;2.60;2.40;;;4.60;99.90;;;;;;5051373;28;20208;-62
2022/01/28 06:29:24;;;;;;;2.50;2.40;;;4.60;99.90;;;;;;5051092;28;20781;-63
2022/01/28 06:31:51;;;;;;;2.50;2.40;;;4.60;99.90;;;;;;5051172;28;20295;-63
2022/01/28 06:34:18;;;;;;;2.40;2.30;;;4.50;99.90;;;;;;5054428;28;20206;-62
2022/01/28 06:36:44;;;;;;;2.40;2.30;;;4.60;99.90;;;;;;5055616;28;20200;-63
2022/01/28 06:39:11;;;;;;;2.90;2.70;;;4.50;99.90;;;;;;5055634;28;20290;-63
2022/01/28 06:41:38;;;;;;;2.63;2.53;;;4.50;99.90;;;;;;5055664;28;20291;-61
2022/01/28 06:44:07;;;;;;;2.80;2.70;;;4.50;99.90;;;;;;5055613;28;20552;-62
2022/01/28 06:46:34;;;;;;;2.70;2.60;;;4.60;99.90;;;;;;5051229;28;20294;-61
2022/01/28 06:49:01;;;;;;;2.30;2.20;;;4.60;99.90;;;;;;5054880;28;20204;-62
2022/01/28 06:51:28;;;;;;;2.70;2.60;;;4.60;99.90;;;;;;5047650;28;20250;-63
2022/01/28 06:53:55;;;;;;;2.60;2.50;;;4.50;99.90;;;;;;5055414;28;20620;-62
2022/01/28 06:56:21;;;;;;;2.90;2.70;;;4.50;99.90;;;;;;5050821;28;20209;-63
2022/01/28 06:58:48;;;;;;;2.30;2.20;;;4.40;99.90;;;;;;5055945;28;20200;-62
2022/01/28 07:01:16;;;;;;;2.50;2.40;;;4.40;99.90;;;;;;5058302;28;20224;-61
2022/01/28 07:03:43;;;;;;;2.40;2.30;;;4.40;99.90;;;;;;5058192;28;20310;-62
2022/01/28 07:06:10;;;;;;;2.60;2.50;;;4.30;99.90;;;;;;5056545;28;20207;-61
2022/01/28 07:08:38;;;;;;;3.00;2.80;;;4.30;99.90;;;;;;5042843;28;20200;-62
2022/01/28 07:11:05;;;;;;;2.40;2.30;;;4.40;99.90;;;;;;5048863;28;20251;-61
2022/01/28 07:13:32;;;;;;;2.73;2.63;;;4.40;99.90;;;;;;5045921;28;20193;-63
2022/01/28 07:15:59;;;;;;;2.80;2.70;;;4.40;99.90;;;;;;5059638;28;20223;-61
2022/01/28 07:18:28;;;;;;;2.80;2.70;;;4.40;99.90;;;;;;5050841;28;20239;-63
2022/01/28 07:20:56;;;;;;;2.87;2.77;;;4.40;99.90;;;;;;5053513;28;20228;-61
2022/01/28 07:23:23;;;;;;;2.50;2.40;;;4.40;99.90;;;;;;5051332;28;20228;-60
2022/01/28 07:25:50;;;;;;;2.73;2.60;;;4.30;99.90;;;;;;5054234;28;20211;-62
2022/01/28 07:28:16;;;;;;;2.50;2.40;;;4.20;99.90;;;;;;5042979;28;21596;-63
2022/01/28 07:30:43;;;;;;;2.70;2.60;;;4.30;99.90;;;;;;5049293;28;20293;-62
2022/01/28 07:33:10;;;;;;;2.90;2.80;;;4.30;99.90;;;;;;5054343;28;20231;-62
2022/01/28 07:35:39;;;;;;;2.60;2.50;;;4.20;99.90;;;;;;5052904;28;20230;-62
2022/01/28 07:38:06;;;;;;;2.53;2.43;;;4.20;99.90;;;;;;5049703;28;20294;-62
2022/01/28 07:40:33;;;;;;;2.60;2.50;;;4.30;99.90;;;;;;5046795;28;20710;-64
2022/01/28 07:43:00;;;;;;;2.60;2.50;;;4.30;99.90;;;;;;5041325;28;20198;-63
2022/01/28 07:45:27;;;;;;;2.47;2.37;;;4.30;99.90;;;;;;5046119;28;20315;-62
2022/01/28 07:47:54;;;;;;;2.60;2.50;;;4.40;99.90;;;;;;5051627;28;20212;-62
2022/01/28 07:50:21;;;;;;;2.27;2.17;;;4.50;99.90;;;;;;5046344;28;20233;-61
2022/01/28 07:52:50;;;;;;;2.17;2.07;;;4.60;99.90;;;;;;5037456;28;20212;-62
2022/01/28 07:55:17;;;;;;;2.40;2.30;;;4.70;99.90;;;;;;5037783;28;20669;-62
2022/01/28 07:57:45;;;;;;;2.10;2.00;;;4.80;99.90;;;;;;5040144;28;20931;-62
2022/01/28 08:00:14;;;;;;;2.47;2.37;;;4.90;99.90;;;;;;5053465;28;20255;-62
2022/01/28 08:02:42;;;;;;;2.50;2.40;;;5.00;99.90;;;;;;5046400;28;20211;-62
2022/01/28 08:05:09;;;;;;;2.37;2.20;;;5.10;99.90;;;;;;5050364;28;20702;-62
2022/01/28 08:07:36;;;;;;;2.50;2.40;;;5.10;99.90;;;;;;5036820;28;20200;-61
2022/01/28 08:10:05;;;;;;;2.70;2.60;;;5.20;99.90;;;;;;5035363;28;20232;-61
2022/01/28 08:12:32;;;;;;;2.70;2.50;;;5.20;99.90;;;;;;5037146;28;20740;-61
2022/01/28 08:14:59;;;;;;;2.60;2.50;;;5.20;99.90;;;;;;5042221;28;20200;-60
2022/01/28 08:17:26;;;;;;;2.73;2.53;;;5.30;99.90;;;;;;5034150;28;20207;-61
2022/01/28 08:19:53;;;;;;;2.77;2.57;;;5.30;99.90;;;;;;5033551;28;20286;-61
2022/01/28 08:22:20;;;;;;;2.33;2.23;;;5.40;99.90;;;;;;5035679;28;20211;-62
2022/01/28 08:24:47;;;;;;;2.40;2.30;;;5.40;99.90;;;;;;5039693;28;20267;-62
2022/01/28 08:27:15;;;;;;;2.43;2.33;;;5.40;99.90;;;;;;5038650;28;20642;-62
2022/01/28 08:29:42;;;;;;;2.60;2.50;;;5.40;99.90;;;;;;5039877;28;20259;-61
2022/01/28 08:32:09;;;;;;;2.60;2.50;;;5.40;99.90;;;;;;5044545;28;20204;-61
2022/01/28 08:34:36;;;;;;;2.60;2.50;;;5.40;99.90;;;;;;5039073;28;20236;-61
2022/01/28 08:37:04;;;;;;;2.50;2.40;;;5.50;99.90;;;;;;5041994;28;20200;-61
2022/01/28 08:39:31;;;;;;;2.43;2.33;;;5.50;99.90;;;;;;5037968;28;20228;-61
2022/01/28 08:41:58;;;;;;;2.73;2.63;;;5.50;99.90;;;;;;5046434;28;20287;-61
2022/01/28 08:44:27;;;;;;;2.50;2.37;;;5.50;99.90;;;;;;5039987;28;20315;-61
2022/01/28 08:46:54;;;;;;;2.50;2.40;;;5.60;99.90;;;;;;5044288;28;20200;-61
2022/01/28 08:49:21;;;;;;;2.50;2.40;;;5.60;99.90;;;;;;5038932;28;20244;-62
2022/01/28 08:51:48;;;;;;;2.40;2.30;;;5.60;99.90;;;;;;5048494;28;20279;-61
2022/01/28 08:54:15;;;;;;;2.53;2.43;;;5.70;99.90;;;;;;5049470;28;20716;-63
2022/01/28 08:56:42;;;;;;;2.50;2.40;;;5.50;99.90;;;;;;5052263;28;20578;-62
2022/01/28 08:59:09;;;;;;;2.40;2.30;;;5.70;99.90;;;;;;5055381;28;20207;-62
2022/01/28 09:01:38;;;;;;;2.50;2.40;;;5.80;99.90;;;;;;5055245;28;20235;-62
2022/01/28 09:04:05;;;;;;;2.57;2.47;;;5.80;99.90;;;;;;5053761;28;20288;-63
2022/01/28 09:06:32;;;;;;;2.77;2.67;;;5.90;99.90;;;;;;5054019;28;20215;-62
2022/01/28 09:09:01;;;;;;;2.50;2.40;;;5.90;99.90;;;;;;5049849;28;20231;-62
2022/01/28 09:11:46;;;;;;;2.50;2.40;;;5.90;99.90;;;;;;5053285;28;20296;-62
2022/01/28 09:14:13;;;;;;;2.60;2.50;;;5.80;99.90;;;;;;5053422;28;20196;-63
2022/01/28 09:16:42;;;;;;;2.20;2.10;;;5.60;99.90;;;;;;5053253;28;20235;-63
2022/01/28 09:19:09;;;;;;;2.50;2.40;;;5.60;99.90;;;;;;5053614;28;20231;-64
2022/01/28 09:21:36;;;;;;;2.27;2.17;;;5.70;99.90;;;;;;5052167;28;20204;-63
2022/01/28 09:24:03;;;;;;;2.30;2.20;;;5.70;99.90;;;;;;5052541;28;20642;-63
2022/01/28 09:26:30;;;;;;;2.43;2.33;;;5.80;99.90;;;;;;5052261;28;20284;-64
2022/01/28 09:28:57;;;;;;;2.50;2.40;;;5.70;99.90;;;;;;5052422;28;20286;-62
2022/01/28 09:31:25;;;;;;;2.50;2.40;;;5.50;99.90;;;;;;5052583;28;20195;-64
2022/01/28 09:33:53;;;;;;;2.37;2.27;;;5.50;99.90;;;;;;5057188;28;20239;-62
2022/01/28 09:36:20;;;;;;;2.30;2.20;;;5.50;99.90;;;;;;5052922;28;20212;-62
2022/01/28 09:38:47;;;;;;;1.90;1.80;;;5.50;99.90;;;;;;5056267;28;20220;-63
2022/01/28 09:41:15;;;;;;;2.43;2.30;;;5.60;99.90;;;;;;5056698;28;20246;-61
2022/01/28 09:43:44;;;;;;;2.40;2.30;;;5.60;99.90;;;;;;5054169;28;20341;-61
2022/01/28 09:46:12;;;;;;;2.60;2.50;;;5.60;99.90;;;;;;5066327;28;20797;-64
2022/01/28 09:48:40;;;;;;;2.37;2.27;;;5.60;99.90;;;;;;5065011;28;20209;-63
2022/01/28 09:51:08;;;;;;;2.33;2.23;;;5.60;99.90;;;;;;5065722;28;20254;-61
2022/01/28 09:53:35;;;;;;;2.67;2.47;;;5.60;99.90;;;;;;5063144;28;20370;-63
2022/01/28 09:56:02;;;;;;;2.30;2.20;;;5.50;99.90;;;;;;5062641;28;20192;-61
2022/01/28 09:58:29;;;;;;;2.40;2.30;;;5.50;99.90;;;;;;5056961;28;20232;-62
2022/01/28 10:00:56;;;;;;;2.03;1.93;;;5.60;99.90;;;;;;5054171;28;20283;-60
2022/01/28 10:03:26;;;;;;;2.47;2.37;;;5.60;99.90;;;;;;5050823;28;20259;-61
2022/01/28 10:05:54;;;;;;;2.20;2.10;;;5.70;99.90;;;;;;5052287;28;20234;-63
2022/01/28 10:08:23;;;;;;;2.33;2.23;;;5.80;99.90;;;;;;5054346;28;20622;-61
2022/01/28 10:10:58;;;;;;;2.23;2.13;;;6.00;99.90;;;;;;5052054;28;20311;-63
2022/01/28 10:13:30;;;;;;;2.50;2.40;;;6.20;99.90;;;;;;5050286;28;20231;-62
2022/01/28 10:16:07;;;;;;;2.30;2.20;;;6.20;99.90;;;;;;5052618;28;20257;-63
2022/01/28 10:18:41;;;;;;;2.20;2.10;;;6.40;99.90;;;;;;5053039;28;20191;-64
2022/01/28 10:21:20;;;;;;;2.10;2.00;;;6.40;99.90;;;;;;5046622;28;20230;-62
2022/01/28 10:24:16;;;;;;;2.43;2.33;;;6.30;99.90;;;;;;5050196;28;20204;-62
2022/01/28 10:26:47;;;;;;;2.20;2.10;;;6.20;99.90;;;;;;4994309;28;20210;-62
2022/01/28 10:29:16;;;;;;;2.20;2.10;;;6.20;99.90;;;;;;5053872;28;20200;-63
2022/01/28 10:31:49;;;;;;;2.00;1.90;;;6.30;99.90;;;;;;5056365;28;20203;-62
2022/01/28 10:34:25;;;;;;;2.20;2.10;;;6.50;99.90;;;;;;5053360;28;20287;-64
2022/01/28 10:37:07;;;;;;;2.00;1.90;;;6.60;99.90;;;;;;5052369;28;20218;-63
2022/01/28 10:39:50;;;;;;;2.00;1.90;;;6.40;99.90;;;;;;5057782;28;20245;-63
2022/01/28 10:42:19;;;;;;;1.80;1.70;;;6.50;99.90;;;;;;5053007;28;20279;-61
2022/01/28 10:44:56;;;;;;;1.73;1.67;;;6.50;99.90;;;;;;5058073;28;20216;-63
2022/01/28 10:47:35;;;;;;;1.60;1.60;;;6.60;99.90;;;;;;5057797;28;20195;-60
2022/01/28 10:50:16;;;;;;;2.00;1.90;;;6.60;99.90;;;;;;5048068;28;20238;-63
2022/01/28 10:52:43;;;;;;;1.80;1.70;;;6.70;99.90;;;;;;5051897;28;20203;-62
2022/01/28 10:55:18;;;;;;;1.77;1.67;;;6.80;99.90;;;;;;5050418;28;20315;-63
2022/01/28 10:57:57;;;;;;;2.07;1.97;;;7.00;99.90;;;;;;5050942;28;20604;-62
2022/01/28 11:00:28;;;;;;;2.00;1.90;;;7.10;99.90;;;;;;5054348;28;20678;-62
2022/01/28 11:02:56;;;;;;;1.80;1.70;;;7.00;99.90;;;;;;5046925;28;20277;-62
2022/01/28 11:05:24;;;;;;;2.00;1.90;;;7.10;99.90;;;;;;5051760;28;20226;-61
2022/01/28 11:07:52;;;;;;;1.80;1.70;;;7.20;99.90;;;;;;5046454;28;20231;-63
2022/01/28 11:10:21;;;;;;;1.70;1.70;;;7.30;99.90;;;;;;5045289;28;20712;-63
2022/01/28 11:12:48;;;;;;;1.97;1.87;;;7.30;99.90;;;;;;5050630;28;20283;-62
2022/01/28 11:15:15;;;;;;;1.90;1.80;;;7.50;99.90;;;;;;5047891;28;20246;-62
2022/01/28 11:17:42;;;;;;;1.77;1.67;;;7.60;99.90;;;;;;5047356;28;20207;-63
2022/01/28 11:20:13;;;;;;;1.90;1.80;;;7.60;99.90;;;;;;5054994;28;20247;-63
2022/01/28 11:22:51;;;;;;;1.70;1.60;;;7.70;99.90;;;;;;5054463;28;20287;-62
2022/01/28 11:25:36;;;;;;;1.90;1.80;;;7.90;99.90;;;;;;5054959;28;20207;-63
2022/01/28 11:28:08;;;;;;;1.90;1.80;;;8.00;99.90;;;;;;5051960;28;20208;-62
2022/01/28 11:30:35;;;;;;;2.13;2.03;;;8.10;99.90;;;;;;5055213;28;20220;-62
2022/01/28 11:33:05;;;;;;;1.90;1.80;;;8.10;99.90;;;;;;5053557;28;20302;-64
2022/01/28 11:35:35;;;;;;;1.83;1.73;;;8.00;99.90;;;;;;5056653;28;20244;-63
2022/01/28 11:38:22;;;;;;;1.97;1.87;;;7.90;99.90;;;;;;5054398;28;20718;-62
2022/01/28 11:40:54;;;;;;;1.70;1.60;;;7.80;99.90;;;;;;5053950;28;20337;-63
2022/01/28 11:43:23;;;;;;;1.80;1.70;;;8.00;99.90;;;;;;5054421;28;20206;-63
2022/01/28 11:46:06;;;;;;;1.80;1.70;;;8.00;99.90;;;;;;5054966;28;20224;-63
2022/01/28 11:48:54;;;;;;;1.60;1.50;;;8.10;99.90;;;;;;5055319;28;20199;-61
2022/01/28 11:51:23;;;;;;;1.63;1.57;;;8.20;99.90;;;;;;5054365;28;20744;-62
2022/01/28 11:53:55;;;;;;;1.70;1.60;;;8.20;99.90;;;;;;5054899;28;20283;-62
2022/01/28 11:56:24;;;;;;;1.70;1.60;;;8.20;99.90;;;;;;5049178;28;20201;-63
2022/01/28 11:58:57;;;;;;;1.97;1.73;;;8.20;99.90;;;;;;5053469;28;20196;-62
2022/01/28 12:01:25;;;;;;;1.80;1.70;;;8.20;99.90;;;;;;5053059;28;20214;-62
2022/01/28 12:04:13;;;;;;;1.80;1.70;;;8.10;99.90;;;;;;5053235;28;20200;-63
2022/01/28 12:06:40;;;;;;;1.80;1.70;;;8.10;99.90;;;;;;5063588;28;20300;-63
2022/01/28 12:09:08;;;;;;;1.77;1.63;;;8.10;99.90;;;;;;5068156;28;20204;-63
2022/01/28 12:11:46;;;;;;;1.67;1.60;;;8.10;99.90;;;;;;5067060;28;20232;-63
2022/01/28 12:14:14;;;;;;;1.90;1.80;;;8.00;99.90;;;;;;5065862;28;20267;-63
2022/01/28 12:16:45;;;;;;;1.87;1.77;;;8.00;99.90;;;;;;5068446;28;20290;-62
2022/01/28 12:19:19;;;;;;;1.80;1.70;;;8.00;99.90;;;;;;5050008;28;20204;-62
2022/01/28 12:22:04;;;;;;;2.30;2.10;;;8.00;99.90;;;;;;5041692;28;20274;-63
2022/01/28 12:24:33;;;;;;;1.80;1.70;;;8.10;99.90;;;;;;5041528;28;20215;-62
2022/01/28 12:27:04;;;;;;;1.70;1.60;;;8.20;99.90;;;;;;5059628;22;20234;-63
2022/01/28 12:29:33;;;;;;;1.63;1.53;;;8.10;99.90;;;;;;5032933;28;20262;-64
2022/01/28 12:32:01;;;;;;;1.60;1.60;;;8.20;99.90;;;;;;5034086;28;20236;-65
2022/01/28 12:34:28;;;;;;;1.77;1.67;;;8.10;99.90;;;;;;5035732;28;20213;-65
2022/01/28 12:36:58;;;;;;;1.70;1.60;;;8.10;99.90;;;;;;5034830;28;20216;-64
2022/01/28 12:39:35;;;;;;;1.50;1.50;;;8.00;99.90;;;;;;5037067;28;20208;-65
2022/01/28 12:42:08;;;;;;;1.70;1.60;;;7.90;99.90;;;;;;5031385;28;20709;-64
2022/01/28 12:44:37;;;;;;;1.87;1.77;;;7.80;99.90;;;;;;5017808;28;20205;-64
2022/01/28 12:47:07;;;;;;;1.83;1.73;;;7.70;99.90;;;;;;5014869;28;20233;-65
2022/01/28 12:49:35;;;;;;;1.77;1.67;;;7.70;99.90;;;;;;5011474;28;20978;-65
2022/01/28 12:52:05;;;;;;;2.23;2.13;;;7.60;99.90;;;;;;5013106;28;20630;-65
2022/01/28 12:54:34;;;;;;;1.60;1.60;;;7.60;99.90;;;;;;5014452;28;20202;-63
2022/01/28 12:57:01;;;;;;;1.53;1.53;;;7.60;99.90;;;;;;5012587;28;20228;-65
2022/01/28 12:59:29;;;;;;;1.83;1.73;;;7.60;99.90;;;;;;5013023;28;20292;-64
2022/01/28 13:01:57;;;;;;;2.07;1.80;;;7.70;99.90;;;;;;5014932;28;20292;-64
2022/01/28 13:04:36;;;;;;;2.30;2.20;;;7.80;99.90;;;;;;5013819;28;20625;-64
2022/01/28 13:09:50;;;;;;;1.93;1.83;;;8.00;99.90;;;;;;5016107;28;20244;-65
2022/01/28 13:12:25;;;;;;;1.83;1.73;;;8.00;99.90;;;;;;5014985;28;20216;-65
2022/01/28 13:14:55;;;;;;;1.90;1.80;;;8.00;99.90;;;;;;5015636;28;20200;-64
2022/01/28 13:17:24;;;;;;;1.63;1.57;;;8.00;99.90;;;;;;5017014;28;20227;-64
2022/01/28 13:19:55;;;;;;;1.80;1.70;;;8.10;99.90;;;;;;5015131;28;20308;-65
2022/01/28 13:22:24;;;;;;;1.90;1.80;;;8.20;99.90;;;;;;5016705;28;20201;-64
2022/01/28 13:24:52;;;;;;;1.90;1.80;;;8.20;99.90;;;;;;5015321;28;20512;-66
2022/01/28 13:27:20;;;;;;;2.20;2.10;;;8.20;99.90;;;;;;5013336;28;20615;-65
2022/01/28 13:29:51;;;;;;;2.30;2.20;;;8.20;99.90;;;;;;5015130;28;20300;-66
2022/01/28 13:32:23;;;;;;;1.87;1.77;;;8.20;99.90;;;;;;5010055;28;20263;-64
2022/01/28 13:34:52;;;;;;;2.17;2.07;;;8.20;99.90;;;;;;5014780;28;20209;-63
2022/01/28 13:37:33;;;;;;;2.00;1.90;;;8.20;99.90;;;;;;5012084;28;20253;-65
2022/01/28 13:40:00;;;;;;;2.30;2.20;;;8.20;99.90;;;;;;5011638;28;20213;-65
2022/01/28 13:42:27;;;;;;;2.37;2.27;;;8.20;99.90;;;;;;5011863;28;20198;-65
2022/01/28 13:44:56;;;;;;;2.20;2.10;;;8.20;99.90;;;;;;5024020;28;20297;-64
2022/01/28 13:47:25;;;;;;;2.77;2.57;;;8.00;99.90;;;;;;5016542;28;20272;-63
2022/01/28 13:49:58;;;;;;;2.20;2.10;;;8.10;99.90;;;;;;5023169;28;20208;-63
2022/01/28 13:52:43;;;;;;;2.27;2.17;;;8.20;99.90;;;;;;5023795;28;20212;-64
2022/01/28 13:55:31;;;;;;;2.30;2.20;;;8.20;99.90;;;;;;5016002;28;20201;-65
2022/01/28 13:58:02;;;;;;;2.20;2.10;;;8.20;99.90;;;;;;5013324;28;20229;-64
2022/01/28 14:00:39;;;;;;;2.07;1.97;;;8.10;99.90;;;;;;5017014;28;20265;-66
2022/01/28 14:03:15;;;;;;;1.90;1.80;;;7.90;99.90;;;;;;5016579;28;20284;-64
2022/01/28 14:05:53;;;;;;;2.00;1.90;;;7.70;99.90;;;;;;5012088;28;20408;-65
2022/01/28 14:08:40;;;;;;;2.20;2.10;;;7.60;99.90;;;;;;5018924;28;20217;-64
2022/01/28 14:11:26;;;;;;;2.40;2.00;;;7.60;99.90;;;;;;5012424;28;20259;-64
2022/01/28 14:14:10;;;;;;;2.10;2.00;;;7.60;99.90;;;;;;5013105;28;20682;-65